sensor_id;sensor_type;location;lat;lon;timestamp;pressure;altitude;pressure_sealevel;temperature;humidity
42591;BME280;28218;53.342;-6.216;2023-04-24T00:00:01;100767.41;;;10.94;100.00
42591;BME280;28218;53.342;-6.216;2023-04-24T00:02:32;100772.19;;;10.91;100.00
42591;BME280;28218;53.342;-6.216;2023-04-24T00:05:01;100774.00;;;10.90;100.00
42591;BME280;28218;53.342;-6.216;2023-04-24T00:07:30;100771.03;;;10.85;100.00
42591;BME280;28218;53.342;-6.216;2023-04-24T00:09:58;100773.03;;;10.83;100.00
42591;BME280;28218;53.342;-6.216;2023-04-24T00:12:28;100768.59;;;10.84;100.00
42591;BME280;28218;53.342;-6.216;2023-04-24T00:14:56;100771.41;;;10.82;100.00
42591;BME280;28218;53.342;-6.216;2023-04-24T00:17:25;100767.28;;;10.80;100.00
42591;BME280;28218;53.342;-6.216;2023-04-24T00:19:53;100768.28;;;10.79;100.00
42591;BME280;28218;53.342;-6.216;2023-04-24T00:22:25;100768.59;;;10.75;100.00
42591;BME280;28218;53.342;-6.216;2023-04-24T00:24:53;100771.41;;;10.74;100.00
42591;BME280;28218;53.342;-6.216;2023-04-24T00:27:21;100779.47;;;10.72;100.00
42591;BME280;28218;53.342;-6.216;2023-04-24T00:29:51;100766.47;;;10.71;100.00
42591;BME280;28218;53.342;-6.216;2023-04-24T00:32:19;100771.09;;;10.69;100.00
42591;BME280;28218;53.342;-6.216;2023-04-24T00:34:49;100771.25;;;10.67;100.00
42591;BME280;28218;53.342;-6.216;2023-04-24T00:37:17;100778.69;;;10.64;100.00
42591;BME280;28218;53.342;-6.216;2023-04-24T00:39:45;100771.75;;;10.63;100.00
42591;BME280;28218;53.342;-6.216;2023-04-24T00:42:13;100776.53;;;10.59;100.00
42591;BME280;28218;53.342;-6.216;2023-04-24T00:44:42;100772.41;;;10.57;100.00
42591;BME280;28218;53.342;-6.216;2023-04-24T00:47:12;100773.59;;;10.54;100.00
42591;BME280;28218;53.342;-6.216;2023-04-24T00:49:41;100775.38;;;10.54;100.00
42591;BME280;28218;53.342;-6.216;2023-04-24T00:52:10;100773.09;;;10.51;100.00
42591;BME280;28218;53.342;-6.216;2023-04-24T00:54:39;100768.97;;;10.48;100.00
42591;BME280;28218;53.342;-6.216;2023-04-24T00:57:07;100764.88;;;10.45;100.00
42591;BME280;28218;53.342;-6.216;2023-04-24T00:59:36;100768.50;;;10.44;100.00
42591;BME280;28218;53.342;-6.216;2023-04-24T01:02:05;100768.81;;;10.41;100.00
42591;BME280;28218;53.342;-6.216;2023-04-24T01:04:36;100769.13;;;10.38;100.00
42591;BME280;28218;53.342;-6.216;2023-04-24T01:07:05;100767.66;;;10.36;100.00
42591;BME280;28218;53.342;-6.216;2023-04-24T01:09:36;100769.50;;;10.35;100.00
42591;BME280;28218;53.342;-6.216;2023-04-24T01:12:06;100774.06;;;10.33;100.00
42591;BME280;28218;53.342;-6.216;2023-04-24T01:14:34;100776.72;;;10.33;100.00
42591;BME280;28218;53.342;-6.216;2023-04-24T01:17:03;100778.84;;;10.30;100.00
42591;BME280;28218;53.342;-6.216;2023-04-24T01:19:31;100777.03;;;10.30;100.00
42591;BME280;28218;53.342;-6.216;2023-04-24T01:22:02;100777.22;;;10.29;100.00
42591;BME280;28218;53.342;-6.216;2023-04-24T01:24:32;100778.19;;;10.28;100.00
42591;BME280;28218;53.342;-6.216;2023-04-24T01:27:00;100779.34;;;10.25;100.00
42591;BME280;28218;53.342;-6.216;2023-04-24T01:29:29;100792.50;;;10.25;100.00
42591;BME280;28218;53.342;-6.216;2023-04-24T01:31:57;100791.00;;;10.22;100.00
42591;BME280;28218;53.342;-6.216;2023-04-24T01:34:25;100803.50;;;10.20;100.00
42591;BME280;28218;53.342;-6.216;2023-04-24T01:36:54;100806.31;;;10.19;100.00
42591;BME280;28218;53.342;-6.216;2023-04-24T01:39:23;100806.31;;;10.19;100.00
42591;BME280;28218;53.342;-6.216;2023-04-24T01:41:54;100806.81;;;10.22;100.00
42591;BME280;28218;53.342;-6.216;2023-04-24T01:44:22;100800.88;;;10.20;100.00
42591;BME280;28218;53.342;-6.216;2023-04-24T01:46:51;100796.28;;;10.22;100.00
42591;BME280;28218;53.342;-6.216;2023-04-24T01:49:21;100789.19;;;10.23;100.00
42591;BME280;28218;53.342;-6.216;2023-04-24T01:51:49;100782.97;;;10.24;100.00
42591;BME280;28218;53.342;-6.216;2023-04-24T01:54:17;100789.19;;;10.23;100.00
42591;BME280;28218;53.342;-6.216;2023-04-24T01:56:46;100793.50;;;10.24;100.00
42591;BME280;28218;53.342;-6.216;2023-04-24T01:59:17;100793.50;;;10.24;100.00
42591;BME280;28218;53.342;-6.216;2023-04-24T02:01:45;100798.78;;;10.24;100.00
42591;BME280;28218;53.342;-6.216;2023-04-24T02:04:14;100810.13;;;10.24;100.00
42591;BME280;28218;53.342;-6.216;2023-04-24T02:06:42;100803.72;;;10.27;100.00
42591;BME280;28218;53.342;-6.216;2023-04-24T02:09:11;100812.44;;;10.28;100.00
42591;BME280;28218;53.342;-6.216;2023-04-24T02:11:39;100810.63;;;10.28;100.00
42591;BME280;28218;53.342;-6.216;2023-04-24T02:14:07;100800.09;;;10.28;100.00
42591;BME280;28218;53.342;-6.216;2023-04-24T02:16:38;100806.00;;;10.30;100.00
42591;BME280;28218;53.342;-6.216;2023-04-24T02:19:06;100806.84;;;10.31;100.00
42591;BME280;28218;53.342;-6.216;2023-04-24T02:21:35;100812.59;;;10.34;100.00
42591;BME280;28218;53.342;-6.216;2023-04-24T02:24:03;100813.41;;;10.35;100.00
42591;BME280;28218;53.342;-6.216;2023-04-24T02:26:31;100812.44;;;10.36;100.00
42591;BME280;28218;53.342;-6.216;2023-04-24T02:29:00;100814.09;;;10.37;100.00
42591;BME280;28218;53.342;-6.216;2023-04-24T02:31:28;100808.66;;;10.38;100.00
42591;BME280;28218;53.342;-6.216;2023-04-24T02:33:58;100820.19;;;10.37;100.00
42591;BME280;28218;53.342;-6.216;2023-04-24T02:36:26;100817.38;;;10.39;100.00
42591;BME280;28218;53.342;-6.216;2023-04-24T02:38:54;100821.69;;;10.40;100.00
42591;BME280;28218;53.342;-6.216;2023-04-24T02:41:22;100821.00;;;10.38;100.00
42591;BME280;28218;53.342;-6.216;2023-04-24T02:43:51;100826.09;;;10.39;100.00
42591;BME280;28218;53.342;-6.216;2023-04-24T02:46:20;100825.94;;;10.41;100.00
42591;BME280;28218;53.342;-6.216;2023-04-24T02:48:48;100824.78;;;10.43;100.00
42591;BME280;28218;53.342;-6.216;2023-04-24T02:51:18;100826.28;;;10.46;100.00
42591;BME280;28218;53.342;-6.216;2023-04-24T02:53:46;100827.09;;;10.46;100.00
42591;BME280;28218;53.342;-6.216;2023-04-24T02:56:14;100825.28;;;10.47;100.00
42591;BME280;28218;53.342;-6.216;2023-04-24T02:58:42;100829.72;;;10.46;100.00
42591;BME280;28218;53.342;-6.216;2023-04-24T03:01:11;100829.41;;;10.49;100.00
42591;BME280;28218;53.342;-6.216;2023-04-24T03:03:39;100829.41;;;10.49;100.00
42591;BME280;28218;53.342;-6.216;2023-04-24T03:06:08;100837.31;;;10.49;100.00
42591;BME280;28218;53.342;-6.216;2023-04-24T03:08:37;100828.56;;;10.49;100.00
42591;BME280;28218;53.342;-6.216;2023-04-24T03:11:06;100828.25;;;10.52;100.00
42591;BME280;28218;53.342;-6.216;2023-04-24T03:13:34;100824.78;;;10.52;100.00
42591;BME280;28218;53.342;-6.216;2023-04-24T03:16:02;100825.78;;;10.51;100.00
42591;BME280;28218;53.342;-6.216;2023-04-24T03:18:31;100827.75;;;10.48;100.00
42591;BME280;28218;53.342;-6.216;2023-04-24T03:20:59;100827.59;;;10.50;100.00
42591;BME280;28218;53.342;-6.216;2023-04-24T03:23:27;100833.69;;;10.51;100.00
42591;BME280;28218;53.342;-6.216;2023-04-24T03:25:57;100829.09;;;10.44;100.00
42591;BME280;28218;53.342;-6.216;2023-04-24T03:28:25;100832.38;;;10.46;100.00
42591;BME280;28218;53.342;-6.216;2023-04-24T03:30:53;100826.44;;;10.44;100.00
42591;BME280;28218;53.342;-6.216;2023-04-24T03:33:22;100830.41;;;10.40;100.00
42591;BME280;28218;53.342;-6.216;2023-04-24T03:35:50;100828.72;;;10.39;100.00
42591;BME280;28218;53.342;-6.216;2023-04-24T03:38:18;100833.53;;;10.36;100.00
42591;BME280;28218;53.342;-6.216;2023-04-24T03:40:47;100836.66;;;10.31;100.00
42591;BME280;28218;53.342;-6.216;2023-04-24T03:43:16;100838.94;;;10.26;100.00
42591;BME280;28218;53.342;-6.216;2023-04-24T03:45:44;100835.28;;;10.19;100.00
42591;BME280;28218;53.342;-6.216;2023-04-24T03:48:13;100832.31;;;10.14;100.00
42591;BME280;28218;53.342;-6.216;2023-04-24T03:50:41;100823.59;;;10.13;100.00
42591;BME280;28218;53.342;-6.216;2023-04-24T03:53:09;100821.75;;;10.06;100.00
42591;BME280;28218;53.342;-6.216;2023-04-24T03:55:38;100831.81;;;10.02;100.00
42591;BME280;28218;53.342;-6.216;2023-04-24T03:58:06;100827.84;;;10.06;100.00
42591;BME280;28218;53.342;-6.216;2023-04-24T04:00:35;100833.91;;;10.07;100.00
42591;BME280;28218;53.342;-6.216;2023-04-24T04:03:04;100830.63;;;10.05;100.00
42591;BME280;28218;53.342;-6.216;2023-04-24T04:05:32;100829.66;;;10.06;100.00
42591;BME280;28218;53.342;-6.216;2023-04-24T04:08:01;100826.72;;;10.09;100.00
42591;BME280;28218;53.342;-6.216;2023-04-24T04:10:29;100832.97;;;10.08;100.00
42591;BME280;28218;53.342;-6.216;2023-04-24T04:12:57;100832.28;;;10.06;100.00
42591;BME280;28218;53.342;-6.216;2023-04-24T04:15:26;100836.22;;;10.02;100.00
42591;BME280;28218;53.342;-6.216;2023-04-24T04:17:56;100828.81;;;9.97;100.00
42591;BME280;28218;53.342;-6.216;2023-04-24T04:20:24;100841.00;;;9.98;100.00
42591;BME280;28218;53.342;-6.216;2023-04-24T04:22:53;100841.31;;;9.95;100.00
42591;BME280;28218;53.342;-6.216;2023-04-24T04:25:21;100834.25;;;9.95;100.00
42591;BME280;28218;53.342;-6.216;2023-04-24T04:27:49;100826.00;;;9.90;100.00
42591;BME280;28218;53.342;-6.216;2023-04-24T04:30:18;100823.69;;;9.87;100.00
42591;BME280;28218;53.342;-6.216;2023-04-24T04:32:47;100825.50;;;9.79;100.00
42591;BME280;28218;53.342;-6.216;2023-04-24T04:35:17;100833.56;;;9.85;100.00
42591;BME280;28218;53.342;-6.216;2023-04-24T04:37:48;100828.78;;;9.81;100.00
42591;BME280;28218;53.342;-6.216;2023-04-24T04:40:18;100838.66;;;9.87;100.00
42591;BME280;28218;53.342;-6.216;2023-04-24T04:42:46;100840.28;;;9.88;100.00
42591;BME280;28218;53.342;-6.216;2023-04-24T04:45:14;100839.47;;;9.87;100.00
42591;BME280;28218;53.342;-6.216;2023-04-24T04:47:43;100845.09;;;9.84;100.00
42591;BME280;28218;53.342;-6.216;2023-04-24T04:50:12;100840.13;;;9.81;100.00
42591;BME280;28218;53.342;-6.216;2023-04-24T04:52:41;100843.88;;;9.70;100.00
42591;BME280;28218;53.342;-6.216;2023-04-24T04:55:10;100860.78;;;9.60;100.00
42591;BME280;28218;53.342;-6.216;2023-04-24T04:57:40;100868.28;;;9.46;100.00
42591;BME280;28218;53.342;-6.216;2023-04-24T05:00:09;100869.81;;;9.31;100.00
42591;BME280;28218;53.342;-6.216;2023-04-24T05:02:38;100878.81;;;9.20;100.00
42591;BME280;28218;53.342;-6.216;2023-04-24T05:05:07;100879.22;;;9.08;100.00
42591;BME280;28218;53.342;-6.216;2023-04-24T05:07:36;100892.63;;;8.96;100.00
42591;BME280;28218;53.342;-6.216;2023-04-24T05:10:07;100912.75;;;8.88;100.00
42591;BME280;28218;53.342;-6.216;2023-04-24T05:12:36;100912.56;;;8.81;100.00
42591;BME280;28218;53.342;-6.216;2023-04-24T05:15:06;100926.97;;;8.77;100.00
42591;BME280;28218;53.342;-6.216;2023-04-24T05:17:35;100930.69;;;8.75;100.00
42591;BME280;28218;53.342;-6.216;2023-04-24T05:20:04;100927.03;;;8.67;100.00
42591;BME280;28218;53.342;-6.216;2023-04-24T05:22:33;100936.81;;;8.57;100.00
42591;BME280;28218;53.342;-6.216;2023-04-24T05:25:02;100929.00;;;8.48;100.00
42591;BME280;28218;53.342;-6.216;2023-04-24T05:27:32;100930.16;;;8.35;100.00
42591;BME280;28218;53.342;-6.216;2023-04-24T05:30:01;100928.66;;;8.33;100.00
42591;BME280;28218;53.342;-6.216;2023-04-24T05:32:29;100940.88;;;8.24;100.00
42591;BME280;28218;53.342;-6.216;2023-04-24T05:34:57;100940.78;;;8.16;100.00
42591;BME280;28218;53.342;-6.216;2023-04-24T05:37:26;100949.97;;;8.02;100.00
42591;BME280;28218;53.342;-6.216;2023-04-24T05:39:54;100943.50;;;7.97;100.00
42591;BME280;28218;53.342;-6.216;2023-04-24T05:42:22;100945.41;;;7.94;100.00
42591;BME280;28218;53.342;-6.216;2023-04-24T05:44:53;100957.59;;;7.96;100.00
42591;BME280;28218;53.342;-6.216;2023-04-24T05:47:23;100953.28;;;7.94;100.00
42591;BME280;28218;53.342;-6.216;2023-04-24T05:49:53;100959.41;;;7.85;100.00
42591;BME280;28218;53.342;-6.216;2023-04-24T05:52:21;100965.41;;;7.78;100.00
42591;BME280;28218;53.342;-6.216;2023-04-24T05:54:49;100962.22;;;7.74;100.00
42591;BME280;28218;53.342;-6.216;2023-04-24T05:57:18;100972.06;;;7.72;100.00
42591;BME280;28218;53.342;-6.216;2023-04-24T05:59:46;100972.16;;;7.71;100.00
42591;BME280;28218;53.342;-6.216;2023-04-24T06:02:17;100979.22;;;7.70;100.00
42591;BME280;28218;53.342;-6.216;2023-04-24T06:04:45;100979.19;;;7.80;100.00
42591;BME280;28218;53.342;-6.216;2023-04-24T06:07:14;100975.47;;;7.82;100.00
42591;BME280;28218;53.342;-6.216;2023-04-24T06:09:42;100985.38;;;7.88;100.00
42591;BME280;28218;53.342;-6.216;2023-04-24T06:12:10;100988.00;;;7.88;100.00
42591;BME280;28218;53.342;-6.216;2023-04-24T06:14:39;100986.63;;;7.84;100.00
42591;BME280;28218;53.342;-6.216;2023-04-24T06:17:07;100990.22;;;7.83;100.00
42591;BME280;28218;53.342;-6.216;2023-04-24T06:19:37;100997.84;;;7.77;100.00
42591;BME280;28218;53.342;-6.216;2023-04-24T06:22:06;101000.59;;;7.75;100.00
42591;BME280;28218;53.342;-6.216;2023-04-24T06:24:36;101000.59;;;7.75;100.00
42591;BME280;28218;53.342;-6.216;2023-04-24T06:27:05;101004.03;;;7.76;100.00
42591;BME280;28218;53.342;-6.216;2023-04-24T06:29:33;100993.69;;;7.74;100.00
42591;BME280;28218;53.342;-6.216;2023-04-24T06:32:01;100996.47;;;7.73;100.00
42591;BME280;28218;53.342;-6.216;2023-04-24T06:34:30;100999.41;;;7.60;100.00
42591;BME280;28218;53.342;-6.216;2023-04-24T06:37:00;101010.31;;;7.55;100.00
42591;BME280;28218;53.342;-6.216;2023-04-24T06:39:29;101007.28;;;7.50;100.00
42591;BME280;28218;53.342;-6.216;2023-04-24T06:41:57;101007.44;;;7.49;100.00
42591;BME280;28218;53.342;-6.216;2023-04-24T06:44:25;101007.72;;;7.46;100.00
42591;BME280;28218;53.342;-6.216;2023-04-24T06:46:53;101006.19;;;7.43;100.00
42591;BME280;28218;53.342;-6.216;2023-04-24T06:49:22;101022.78;;;7.43;100.00
42591;BME280;28218;53.342;-6.216;2023-04-24T06:51:50;101018.34;;;7.44;100.00
42591;BME280;28218;53.342;-6.216;2023-04-24T06:54:20;101021.50;;;7.38;100.00
42591;BME280;28218;53.342;-6.216;2023-04-24T06:56:48;101029.09;;;7.41;100.00
42591;BME280;28218;53.342;-6.216;2023-04-24T06:59:18;101023.03;;;7.40;100.00
42591;BME280;28218;53.342;-6.216;2023-04-24T07:01:46;101035.31;;;7.40;100.00
42591;BME280;28218;53.342;-6.216;2023-04-24T07:04:15;101044.28;;;7.37;100.00
42591;BME280;28218;53.342;-6.216;2023-04-24T07:06:44;101048.16;;;7.33;100.00
42591;BME280;28218;53.342;-6.216;2023-04-24T07:09:13;101038.22;;;7.27;100.00
42591;BME280;28218;53.342;-6.216;2023-04-24T07:11:44;101036.72;;;7.25;100.00
42591;BME280;28218;53.342;-6.216;2023-04-24T07:14:12;101037.81;;;7.22;100.00
42591;BME280;28218;53.342;-6.216;2023-04-24T07:16:41;101042.09;;;7.23;100.00
42591;BME280;28218;53.342;-6.216;2023-04-24T07:19:10;101040.03;;;7.27;100.00
42591;BME280;28218;53.342;-6.216;2023-04-24T07:21:38;101046.50;;;7.32;100.00
42591;BME280;28218;53.342;-6.216;2023-04-24T07:24:06;101045.94;;;7.38;100.00
42591;BME280;28218;53.342;-6.216;2023-04-24T07:26:37;101045.25;;;7.46;100.00
42591;BME280;28218;53.342;-6.216;2023-04-24T07:29:08;101056.44;;;7.48;100.00
42591;BME280;28218;53.342;-6.216;2023-04-24T07:31:36;101058.91;;;7.50;100.00
42591;BME280;28218;53.342;-6.216;2023-04-24T07:34:04;101055.31;;;7.51;100.00
42591;BME280;28218;53.342;-6.216;2023-04-24T07:36:33;101064.16;;;7.50;100.00
42591;BME280;28218;53.342;-6.216;2023-04-24T07:39:01;101059.75;;;7.50;100.00
42591;BME280;28218;53.342;-6.216;2023-04-24T07:41:29;101066.06;;;7.48;100.00
42591;BME280;28218;53.342;-6.216;2023-04-24T07:43:58;101067.75;;;7.49;100.00
42591;BME280;28218;53.342;-6.216;2023-04-24T07:46:29;101068.16;;;7.54;100.00
42591;BME280;28218;53.342;-6.216;2023-04-24T07:48:58;101062.50;;;7.58;100.00
42591;BME280;28218;53.342;-6.216;2023-04-24T07:51:39;101078.06;;;7.60;100.00
42591;BME280;28218;53.342;-6.216;2023-04-24T07:54:08;101073.81;;;7.59;100.00
42591;BME280;28218;53.342;-6.216;2023-04-24T07:56:37;101076.28;;;7.60;100.00
42591;BME280;28218;53.342;-6.216;2023-04-24T07:59:06;101088.31;;;7.63;100.00
42591;BME280;28218;53.342;-6.216;2023-04-24T08:01:35;101093.41;;;7.64;100.00
42591;BME280;28218;53.342;-6.216;2023-04-24T08:04:04;101090.91;;;7.63;100.00
42591;BME280;28218;53.342;-6.216;2023-04-24T08:06:33;101092.31;;;7.67;100.00
42591;BME280;28218;53.342;-6.216;2023-04-24T08:09:01;101088.56;;;7.69;100.00
42591;BME280;28218;53.342;-6.216;2023-04-24T08:11:30;101096.44;;;7.69;100.00
42591;BME280;28218;53.342;-6.216;2023-04-24T08:13:59;101096.97;;;7.73;100.00
42591;BME280;28218;53.342;-6.216;2023-04-24T08:16:27;101105.41;;;7.77;100.00
42591;BME280;28218;53.342;-6.216;2023-04-24T08:18:57;101094.22;;;7.75;100.00
42591;BME280;28218;53.342;-6.216;2023-04-24T08:21:25;101098.63;;;7.74;100.00
42591;BME280;28218;53.342;-6.216;2023-04-24T08:23:54;101102.22;;;7.83;100.00
42591;BME280;28218;53.342;-6.216;2023-04-24T08:26:22;101097.38;;;7.88;100.00
42591;BME280;28218;53.342;-6.216;2023-04-24T08:28:51;101098.59;;;7.93;100.00
42591;BME280;28218;53.342;-6.216;2023-04-24T08:31:19;101103.97;;;8.02;100.00
42591;BME280;28218;53.342;-6.216;2023-04-24T08:33:49;101100.34;;;8.12;100.00
42591;BME280;28218;53.342;-6.216;2023-04-24T08:36:19;101101.56;;;8.18;100.00
42591;BME280;28218;53.342;-6.216;2023-04-24T08:38:47;101101.94;;;8.23;100.00
42591;BME280;28218;53.342;-6.216;2023-04-24T08:41:15;101105.28;;;8.25;100.00
42591;BME280;28218;53.342;-6.216;2023-04-24T08:43:46;101103.63;;;8.24;100.00
42591;BME280;28218;53.342;-6.216;2023-04-24T08:46:15;101100.69;;;8.27;100.00
42591;BME280;28218;53.342;-6.216;2023-04-24T08:48:44;101104.41;;;8.34;100.00
42591;BME280;28218;53.342;-6.216;2023-04-24T08:51:13;101112.28;;;8.34;100.00
42591;BME280;28218;53.342;-6.216;2023-04-24T08:53:43;101120.31;;;8.42;100.00
42591;BME280;28218;53.342;-6.216;2023-04-24T08:56:13;101114.91;;;8.44;100.00
42591;BME280;28218;53.342;-6.216;2023-04-24T08:58:42;101125.53;;;8.52;100.00
42591;BME280;28218;53.342;-6.216;2023-04-24T09:01:12;101120.78;;;8.56;100.00
42591;BME280;28218;53.342;-6.216;2023-04-24T09:03:40;101130.91;;;8.51;100.00
42591;BME280;28218;53.342;-6.216;2023-04-24T09:06:10;101136.03;;;8.52;100.00
42591;BME280;28218;53.342;-6.216;2023-04-24T09:08:39;101137.25;;;8.58;100.00
42591;BME280;28218;53.342;-6.216;2023-04-24T09:11:11;101143.31;;;8.58;100.00
42591;BME280;28218;53.342;-6.216;2023-04-24T09:13:40;101140.00;;;8.66;100.00
42591;BME280;28218;53.342;-6.216;2023-04-24T09:16:09;101148.69;;;8.66;100.00
42591;BME280;28218;53.342;-6.216;2023-04-24T09:18:37;101152.53;;;8.72;100.00
42591;BME280;28218;53.342;-6.216;2023-04-24T09:21:08;101151.78;;;8.80;100.00
42591;BME280;28218;53.342;-6.216;2023-04-24T09:23:36;101155.28;;;8.80;100.00
42591;BME280;28218;53.342;-6.216;2023-04-24T09:26:05;101161.34;;;8.81;100.00
42591;BME280;28218;53.342;-6.216;2023-04-24T09:28:37;101163.66;;;8.84;100.00
42591;BME280;28218;53.342;-6.216;2023-04-24T09:31:08;101162.84;;;8.83;100.00
42591;BME280;28218;53.342;-6.216;2023-04-24T09:33:37;101175.97;;;8.83;100.00
42591;BME280;28218;53.342;-6.216;2023-04-24T09:36:05;101174.06;;;8.85;100.00
42591;BME280;28218;53.342;-6.216;2023-04-24T09:38:35;101177.34;;;8.87;100.00
42591;BME280;28218;53.342;-6.216;2023-04-24T09:41:05;101175.41;;;8.89;100.00
42591;BME280;28218;53.342;-6.216;2023-04-24T09:43:36;101178.44;;;8.94;100.00
42591;BME280;28218;53.342;-6.216;2023-04-24T09:46:05;101177.13;;;8.99;100.00
42591;BME280;28218;53.342;-6.216;2023-04-24T09:48:35;101189.03;;;9.03;100.00
42591;BME280;28218;53.342;-6.216;2023-04-24T09:51:06;101191.09;;;9.09;100.00
42591;BME280;28218;53.342;-6.216;2023-04-24T09:53:37;101200.19;;;9.14;100.00
42591;BME280;28218;53.342;-6.216;2023-04-24T09:56:07;101200.94;;;9.25;100.00
42591;BME280;28218;53.342;-6.216;2023-04-24T09:58:37;101201.16;;;9.31;100.00
42591;BME280;28218;53.342;-6.216;2023-04-24T10:01:06;101207.66;;;9.37;100.00
42591;BME280;28218;53.342;-6.216;2023-04-24T10:03:35;101210.66;;;9.42;100.00
42591;BME280;28218;53.342;-6.216;2023-04-24T10:06:03;101213.38;;;9.50;100.00
42591;BME280;28218;53.342;-6.216;2023-04-24T10:08:36;101232.22;;;9.45;100.00
42591;BME280;28218;53.342;-6.216;2023-04-24T10:11:06;101231.28;;;9.46;100.00
42591;BME280;28218;53.342;-6.216;2023-04-24T10:13:36;101235.38;;;9.49;100.00
42591;BME280;28218;53.342;-6.216;2023-04-24T10:16:05;101243.53;;;9.56;100.00
42591;BME280;28218;53.342;-6.216;2023-04-24T10:18:34;101248.34;;;9.60;100.00
42591;BME280;28218;53.342;-6.216;2023-04-24T10:21:03;101244.97;;;9.68;100.00
42591;BME280;28218;53.342;-6.216;2023-04-24T10:23:32;101247.91;;;9.65;100.00
42591;BME280;28218;53.342;-6.216;2023-04-24T10:26:00;101250.09;;;9.69;100.00
42591;BME280;28218;53.342;-6.216;2023-04-24T10:28:30;101256.25;;;9.78;100.00
42591;BME280;28218;53.342;-6.216;2023-04-24T10:31:00;101266.19;;;9.84;100.00
42591;BME280;28218;53.342;-6.216;2023-04-24T10:33:29;101268.88;;;9.92;100.00
42591;BME280;28218;53.342;-6.216;2023-04-24T10:35:58;101274.38;;;9.99;100.00
42591;BME280;28218;53.342;-6.216;2023-04-24T10:38:28;101283.56;;;9.95;100.00
42591;BME280;28218;53.342;-6.216;2023-04-24T10:41:07;101295.72;;;9.96;100.00
42591;BME280;28218;53.342;-6.216;2023-04-24T10:43:40;101296.63;;;10.05;100.00
42591;BME280;28218;53.342;-6.216;2023-04-24T10:46:09;101300.47;;;10.10;100.00
42591;BME280;28218;53.342;-6.216;2023-04-24T10:48:42;101308.91;;;10.14;100.00
42591;BME280;28218;53.342;-6.216;2023-04-24T10:51:12;101306.34;;;10.22;100.00
42591;BME280;28218;53.342;-6.216;2023-04-24T10:53:41;101303.78;;;10.30;100.00
42591;BME280;28218;53.342;-6.216;2023-04-24T10:56:09;101309.91;;;10.31;100.00
42591;BME280;28218;53.342;-6.216;2023-04-24T10:58:40;101325.28;;;10.35;100.00
42591;BME280;28218;53.342;-6.216;2023-04-24T11:01:25;101320.66;;;10.37;100.00
42591;BME280;28218;53.342;-6.216;2023-04-24T11:03:55;101332.25;;;10.44;100.00
42591;BME280;28218;53.342;-6.216;2023-04-24T11:06:31;101343.09;;;10.41;100.00
42591;BME280;28218;53.342;-6.216;2023-04-24T11:09:03;101340.09;;;10.36;100.00
42591;BME280;28218;53.342;-6.216;2023-04-24T11:11:33;101350.63;;;10.36;100.00
42591;BME280;28218;53.342;-6.216;2023-04-24T11:14:06;101350.75;;;10.35;100.00
42591;BME280;28218;53.342;-6.216;2023-04-24T11:16:39;101360.09;;;10.29;100.00
42591;BME280;28218;53.342;-6.216;2023-04-24T11:19:20;101360.31;;;10.18;100.00
42591;BME280;28218;53.342;-6.216;2023-04-24T11:21:54;101360.31;;;10.18;100.00
42591;BME280;28218;53.342;-6.216;2023-04-24T11:24:28;101370.84;;;10.18;100.00
42591;BME280;28218;53.342;-6.216;2023-04-24T11:26:59;101378.81;;;10.08;100.00
42591;BME280;28218;53.342;-6.216;2023-04-24T11:29:42;101384.44;;;10.13;100.00
42591;BME280;28218;53.342;-6.216;2023-04-24T11:32:30;101388.72;;;10.14;100.00
42591;BME280;28218;53.342;-6.216;2023-04-24T11:35:00;101406.06;;;10.17;100.00
42591;BME280;28218;53.342;-6.216;2023-04-24T11:37:34;101389.94;;;10.20;100.00
42591;BME280;28218;53.342;-6.216;2023-04-24T11:40:04;101392.16;;;10.24;100.00
42591;BME280;28218;53.342;-6.216;2023-04-24T11:42:34;101402.25;;;10.29;100.00
42591;BME280;28218;53.342;-6.216;2023-04-24T11:45:07;101385.25;;;10.41;100.00
42591;BME280;28218;53.342;-6.216;2023-04-24T11:47:37;101387.28;;;10.47;100.00
42591;BME280;28218;53.342;-6.216;2023-04-24T11:50:07;101395.19;;;10.47;100.00
42591;BME280;28218;53.342;-6.216;2023-04-24T11:52:37;101391.44;;;10.50;100.00
42591;BME280;28218;53.342;-6.216;2023-04-24T11:55:07;101396.16;;;10.64;100.00
42591;BME280;28218;53.342;-6.216;2023-04-24T11:57:36;101387.47;;;10.72;100.00
42591;BME280;28218;53.342;-6.216;2023-04-24T12:00:05;101399.16;;;10.87;100.00
42591;BME280;28218;53.342;-6.216;2023-04-24T12:02:36;101410.97;;;11.09;100.00
42591;BME280;28218;53.342;-6.216;2023-04-24T12:05:06;101404.00;;;11.26;100.00
42591;BME280;28218;53.342;-6.216;2023-04-24T12:07:40;101409.47;;;11.24;100.00
42591;BME280;28218;53.342;-6.216;2023-04-24T12:10:10;101418.44;;;11.14;100.00
42591;BME280;28218;53.342;-6.216;2023-04-24T12:12:38;101422.81;;;11.05;100.00
42591;BME280;28218;53.342;-6.216;2023-04-24T12:15:07;101422.25;;;10.93;100.00
42591;BME280;28218;53.342;-6.216;2023-04-24T12:17:41;101433.06;;;10.82;100.00
42591;BME280;28218;53.342;-6.216;2023-04-24T12:20:10;101436.16;;;10.78;100.00
42591;BME280;28218;53.342;-6.216;2023-04-24T12:22:49;101437.09;;;10.77;100.00
42591;BME280;28218;53.342;-6.216;2023-04-24T12:25:21;101440.81;;;10.84;100.00
42591;BME280;28218;53.342;-6.216;2023-04-24T12:27:53;101447.97;;;10.73;100.00
42591;BME280;28218;53.342;-6.216;2023-04-24T12:30:27;101452.69;;;10.70;100.00
42591;BME280;28218;53.342;-6.216;2023-04-24T12:32:59;101467.38;;;10.72;100.00
42591;BME280;28218;53.342;-6.216;2023-04-24T12:35:30;101464.34;;;10.67;100.00
42591;BME280;28218;53.342;-6.216;2023-04-24T12:38:05;101460.97;;;10.75;100.00
42591;BME280;28218;53.342;-6.216;2023-04-24T12:40:34;101459.09;;;10.85;100.00
42591;BME280;28218;53.342;-6.216;2023-04-24T12:43:13;101470.91;;;10.81;100.00
42591;BME280;28218;53.342;-6.216;2023-04-24T12:45:42;101475.53;;;10.79;100.00